LFPM 201930Z AUTO 35005KT 9999 BKN031/// BKN100/// ///CB 19/18 Q1005

Les avions qui composent notre flotte

Avion Robin DR400-120

Avion école

F-BVMQ
   * tarif promotionnel appliqué pendant la formation des élèves non brevetés


F-BVMQ Planche